sensor_id;sensor_type;location;lat;lon;timestamp;temperature;humidity
53294;DHT22;39181;53.440;5.644;2022-11-04T00:01:04;11.30;99.90
53294;DHT22;39181;53.440;5.644;2022-11-04T00:03:30;11.40;99.90
53294;DHT22;39181;53.440;5.644;2022-11-04T00:06:00;11.40;99.90
53294;DHT22;39181;53.440;5.644;2022-11-04T00:08:26;11.40;99.90
53294;DHT22;39181;53.440;5.644;2022-11-04T00:10:55;11.50;99.90
53294;DHT22;39181;53.440;5.644;2022-11-04T00:13:39;11.50;99.90
53294;DHT22;39181;53.440;5.644;2022-11-04T00:16:05;11.40;99.90
53294;DHT22;39181;53.440;5.644;2022-11-04T00:18:49;11.30;99.90
53294;DHT22;39181;53.440;5.644;2022-11-04T00:21:15;11.30;99.90
53294;DHT22;39181;53.440;5.644;2022-11-04T00:23:59;11.30;99.90
53294;DHT22;39181;53.440;5.644;2022-11-04T00:26:44;11.30;99.90
53294;DHT22;39181;53.440;5.644;2022-11-04T00:29:28;11.30;99.90
53294;DHT22;39181;53.440;5.644;2022-11-04T00:31:53;11.30;99.90
53294;DHT22;39181;53.440;5.644;2022-11-04T00:34:38;11.20;99.90
53294;DHT22;39181;53.440;5.644;2022-11-04T00:37:03;11.20;99.90
53294;DHT22;39181;53.440;5.644;2022-11-04T00:39:29;11.20;99.90
53294;DHT22;39181;53.440;5.644;2022-11-04T00:41:54;11.10;99.90
53294;DHT22;39181;53.440;5.644;2022-11-04T00:44:20;11.10;99.90
53294;DHT22;39181;53.440;5.644;2022-11-04T00:46:45;11.10;99.90
53294;DHT22;39181;53.440;5.644;2022-11-04T00:49:11;11.20;99.90
53294;DHT22;39181;53.440;5.644;2022-11-04T00:51:37;11.30;99.90
53294;DHT22;39181;53.440;5.644;2022-11-04T00:54:04;11.30;99.90
53294;DHT22;39181;53.440;5.644;2022-11-04T00:56:30;11.30;99.90
53294;DHT22;39181;53.440;5.644;2022-11-04T00:58:58;11.30;99.90
53294;DHT22;39181;53.440;5.644;2022-11-04T01:01:24;11.20;99.90
53294;DHT22;39181;53.440;5.644;2022-11-04T01:03:51;11.30;99.90
53294;DHT22;39181;53.440;5.644;2022-11-04T01:06:19;11.20;99.90
53294;DHT22;39181;53.440;5.644;2022-11-04T01:08:45;11.20;99.90
53294;DHT22;39181;53.440;5.644;2022-11-04T01:11:11;11.30;99.90
53294;DHT22;39181;53.440;5.644;2022-11-04T01:13:37;11.20;99.90
53294;DHT22;39181;53.440;5.644;2022-11-04T01:16:05;11.20;99.90
53294;DHT22;39181;53.440;5.644;2022-11-04T01:18:31;11.20;99.90
53294;DHT22;39181;53.440;5.644;2022-11-04T01:21:01;11.20;99.90
53294;DHT22;39181;53.440;5.644;2022-11-04T01:23:27;11.20;99.90
53294;DHT22;39181;53.440;5.644;2022-11-04T01:25:53;11.10;99.90
53294;DHT22;39181;53.440;5.644;2022-11-04T01:28:18;11.20;99.90
53294;DHT22;39181;53.440;5.644;2022-11-04T01:30:44;11.20;99.90
53294;DHT22;39181;53.440;5.644;2022-11-04T01:33:09;11.20;99.90
53294;DHT22;39181;53.440;5.644;2022-11-04T01:35:35;11.20;99.90
53294;DHT22;39181;53.440;5.644;2022-11-04T01:38:00;11.20;99.90
53294;DHT22;39181;53.440;5.644;2022-11-04T01:40:26;11.20;99.90
53294;DHT22;39181;53.440;5.644;2022-11-04T01:42:51;11.20;99.90
53294;DHT22;39181;53.440;5.644;2022-11-04T01:45:19;11.20;99.90
53294;DHT22;39181;53.440;5.644;2022-11-04T01:48:27;11.20;99.90
53294;DHT22;39181;53.440;5.644;2022-11-04T01:50:52;11.20;99.90
53294;DHT22;39181;53.440;5.644;2022-11-04T01:53:26;11.10;99.90
53294;DHT22;39181;53.440;5.644;2022-11-04T01:55:56;11.00;99.90
53294;DHT22;39181;53.440;5.644;2022-11-04T01:58:25;11.00;99.90
53294;DHT22;39181;53.440;5.644;2022-11-04T02:00:52;11.00;99.90
53294;DHT22;39181;53.440;5.644;2022-11-04T02:03:44;11.00;99.90
53294;DHT22;39181;53.440;5.644;2022-11-04T02:06:11;11.10;99.90
53294;DHT22;39181;53.440;5.644;2022-11-04T02:08:38;11.10;99.90
53294;DHT22;39181;53.440;5.644;2022-11-04T02:11:05;11.10;99.90
53294;DHT22;39181;53.440;5.644;2022-11-04T02:13:32;11.10;99.90
53294;DHT22;39181;53.440;5.644;2022-11-04T02:16:20;11.30;99.90
53294;DHT22;39181;53.440;5.644;2022-11-04T02:30:02;11.10;99.90
53294;DHT22;39181;53.440;5.644;2022-11-04T02:35:35;11.10;99.90
53294;DHT22;39181;53.440;5.644;2022-11-04T02:41:30;11.10;99.90
53294;DHT22;39181;53.440;5.644;2022-11-04T02:44:14;11.10;99.90
53294;DHT22;39181;53.440;5.644;2022-11-04T02:46:53;11.10;99.90
53294;DHT22;39181;53.440;5.644;2022-11-04T02:49:37;11.10;99.90
53294;DHT22;39181;53.440;5.644;2022-11-04T02:52:09;11.10;99.90
53294;DHT22;39181;53.440;5.644;2022-11-04T02:54:44;11.10;99.90
53294;DHT22;39181;53.440;5.644;2022-11-04T02:57:18;11.10;99.90
53294;DHT22;39181;53.440;5.644;2022-11-04T02:59:54;11.10;99.90
53294;DHT22;39181;53.440;5.644;2022-11-04T03:02:31;11.10;99.90
53294;DHT22;39181;53.440;5.644;2022-11-04T03:04:58;11.10;99.90
53294;DHT22;39181;53.440;5.644;2022-11-04T03:07:29;11.10;99.90
53294;DHT22;39181;53.440;5.644;2022-11-04T03:10:00;11.10;99.90
53294;DHT22;39181;53.440;5.644;2022-11-04T03:12:30;11.10;99.90
53294;DHT22;39181;53.440;5.644;2022-11-04T03:15:03;11.10;99.90
53294;DHT22;39181;53.440;5.644;2022-11-04T03:17:34;11.20;99.90
53294;DHT22;39181;53.440;5.644;2022-11-04T03:20:05;11.20;99.90
53294;DHT22;39181;53.440;5.644;2022-11-04T03:22:34;11.20;99.90
53294;DHT22;39181;53.440;5.644;2022-11-04T03:25:02;11.20;99.90
53294;DHT22;39181;53.440;5.644;2022-11-04T03:30:18;11.20;99.90
53294;DHT22;39181;53.440;5.644;2022-11-04T03:33:05;11.10;99.90
53294;DHT22;39181;53.440;5.644;2022-11-04T03:35:32;11.00;99.90
53294;DHT22;39181;53.440;5.644;2022-11-04T03:37:58;10.90;99.90
53294;DHT22;39181;53.440;5.644;2022-11-04T03:40:24;10.90;99.90
53294;DHT22;39181;53.440;5.644;2022-11-04T03:43:10;10.90;99.90
53294;DHT22;39181;53.440;5.644;2022-11-04T03:45:36;10.90;99.90
53294;DHT22;39181;53.440;5.644;2022-11-04T03:48:04;10.90;99.90
53294;DHT22;39181;53.440;5.644;2022-11-04T03:50:32;10.90;99.90
53294;DHT22;39181;53.440;5.644;2022-11-04T03:52:58;10.90;99.90
53294;DHT22;39181;53.440;5.644;2022-11-04T03:56:01;11.00;99.90
53294;DHT22;39181;53.440;5.644;2022-11-04T04:01:28;10.80;99.90
53294;DHT22;39181;53.440;5.644;2022-11-04T04:06:34;10.70;99.90
53294;DHT22;39181;53.440;5.644;2022-11-04T04:09:25;10.80;99.90
53294;DHT22;39181;53.440;5.644;2022-11-04T04:12:06;10.90;99.90
53294;DHT22;39181;53.440;5.644;2022-11-04T04:14:39;10.90;99.90
53294;DHT22;39181;53.440;5.644;2022-11-04T04:17:26;11.00;99.90
53294;DHT22;39181;53.440;5.644;2022-11-04T04:20:14;11.00;99.90
53294;DHT22;39181;53.440;5.644;2022-11-04T04:22:46;10.90;99.90
53294;DHT22;39181;53.440;5.644;2022-11-04T04:25:13;10.90;99.90
53294;DHT22;39181;53.440;5.644;2022-11-04T04:27:59;11.00;99.90
53294;DHT22;39181;53.440;5.644;2022-11-04T04:30:26;11.00;99.90
53294;DHT22;39181;53.440;5.644;2022-11-04T04:35:32;11.00;99.90
53294;DHT22;39181;53.440;5.644;2022-11-04T04:41:25;11.00;99.90
53294;DHT22;39181;53.440;5.644;2022-11-04T04:47:04;10.90;99.90
53294;DHT22;39181;53.440;5.644;2022-11-04T04:49:30;10.80;99.90
53294;DHT22;39181;53.440;5.644;2022-11-04T04:52:00;10.80;99.90
53294;DHT22;39181;53.440;5.644;2022-11-04T04:54:26;10.80;99.90
53294;DHT22;39181;53.440;5.644;2022-11-04T04:56:52;10.80;99.90
53294;DHT22;39181;53.440;5.644;2022-11-04T04:59:17;10.90;99.90
53294;DHT22;39181;53.440;5.644;2022-11-04T05:01:43;10.90;99.90
53294;DHT22;39181;53.440;5.644;2022-11-04T05:04:09;10.90;99.90
53294;DHT22;39181;53.440;5.644;2022-11-04T05:06:34;10.90;99.90
53294;DHT22;39181;53.440;5.644;2022-11-04T05:09:00;10.80;99.90
53294;DHT22;39181;53.440;5.644;2022-11-04T05:11:25;10.80;99.90
53294;DHT22;39181;53.440;5.644;2022-11-04T05:13:51;10.80;99.90
53294;DHT22;39181;53.440;5.644;2022-11-04T05:16:16;10.70;99.90
53294;DHT22;39181;53.440;5.644;2022-11-04T05:18:42;10.70;99.90
53294;DHT22;39181;53.440;5.644;2022-11-04T05:21:12;10.70;99.90
53294;DHT22;39181;53.440;5.644;2022-11-04T05:23:38;10.80;99.90
53294;DHT22;39181;53.440;5.644;2022-11-04T05:26:03;10.80;99.90
53294;DHT22;39181;53.440;5.644;2022-11-04T05:28:29;10.80;99.90
53294;DHT22;39181;53.440;5.644;2022-11-04T05:30:55;10.80;99.90
53294;DHT22;39181;53.440;5.644;2022-11-04T05:33:21;10.80;99.90
53294;DHT22;39181;53.440;5.644;2022-11-04T05:35:47;10.80;99.90
53294;DHT22;39181;53.440;5.644;2022-11-04T05:38:12;10.80;99.90
53294;DHT22;39181;53.440;5.644;2022-11-04T05:40:38;10.70;99.90
53294;DHT22;39181;53.440;5.644;2022-11-04T05:43:04;10.70;99.90
53294;DHT22;39181;53.440;5.644;2022-11-04T05:45:29;10.60;99.90
53294;DHT22;39181;53.440;5.644;2022-11-04T05:48:03;10.60;99.90
53294;DHT22;39181;53.440;5.644;2022-11-04T05:50:31;10.60;99.90
53294;DHT22;39181;53.440;5.644;2022-11-04T05:53:00;10.60;99.90
53294;DHT22;39181;53.440;5.644;2022-11-04T05:55:26;10.60;99.90
53294;DHT22;39181;53.440;5.644;2022-11-04T05:57:52;10.60;99.90
53294;DHT22;39181;53.440;5.644;2022-11-04T06:00:18;10.60;99.90
53294;DHT22;39181;53.440;5.644;2022-11-04T06:02:44;10.60;99.90
53294;DHT22;39181;53.440;5.644;2022-11-04T06:05:09;10.60;99.90
53294;DHT22;39181;53.440;5.644;2022-11-04T06:07:35;10.50;99.90
53294;DHT22;39181;53.440;5.644;2022-11-04T06:10:01;10.50;99.90
53294;DHT22;39181;53.440;5.644;2022-11-04T06:12:26;10.50;99.90
53294;DHT22;39181;53.440;5.644;2022-11-04T06:14:52;10.50;99.90
53294;DHT22;39181;53.440;5.644;2022-11-04T06:17:20;10.40;99.90
53294;DHT22;39181;53.440;5.644;2022-11-04T06:19:46;10.40;99.90
53294;DHT22;39181;53.440;5.644;2022-11-04T06:22:13;10.40;99.90
53294;DHT22;39181;53.440;5.644;2022-11-04T06:24:39;10.40;99.90
53294;DHT22;39181;53.440;5.644;2022-11-04T06:27:04;10.40;99.90
53294;DHT22;39181;53.440;5.644;2022-11-04T06:29:30;10.40;99.90
53294;DHT22;39181;53.440;5.644;2022-11-04T06:31:56;10.40;99.90
53294;DHT22;39181;53.440;5.644;2022-11-04T06:34:22;10.40;99.90
53294;DHT22;39181;53.440;5.644;2022-11-04T06:36:48;10.30;99.90
53294;DHT22;39181;53.440;5.644;2022-11-04T06:39:14;10.30;99.90
53294;DHT22;39181;53.440;5.644;2022-11-04T06:41:40;10.20;99.90
53294;DHT22;39181;53.440;5.644;2022-11-04T06:44:05;10.20;99.90
53294;DHT22;39181;53.440;5.644;2022-11-04T06:46:40;10.10;99.90
53294;DHT22;39181;53.440;5.644;2022-11-04T06:49:17;10.00;99.90
53294;DHT22;39181;53.440;5.644;2022-11-04T06:51:43;9.90;99.90
53294;DHT22;39181;53.440;5.644;2022-11-04T06:54:09;9.90;99.90
53294;DHT22;39181;53.440;5.644;2022-11-04T06:56:35;9.90;99.90
53294;DHT22;39181;53.440;5.644;2022-11-04T06:59:02;9.80;99.90
53294;DHT22;39181;53.440;5.644;2022-11-04T07:01:29;9.80;99.90
53294;DHT22;39181;53.440;5.644;2022-11-04T07:03:58;9.70;99.90
53294;DHT22;39181;53.440;5.644;2022-11-04T07:06:24;9.70;99.90
53294;DHT22;39181;53.440;5.644;2022-11-04T07:08:51;9.70;99.90
53294;DHT22;39181;53.440;5.644;2022-11-04T07:11:21;9.70;99.90
53294;DHT22;39181;53.440;5.644;2022-11-04T07:13:48;9.80;99.90
53294;DHT22;39181;53.440;5.644;2022-11-04T07:16:14;9.90;99.90
53294;DHT22;39181;53.440;5.644;2022-11-04T07:18:40;9.90;99.90
53294;DHT22;39181;53.440;5.644;2022-11-04T07:21:06;9.90;99.90
53294;DHT22;39181;53.440;5.644;2022-11-04T07:23:32;9.90;99.90
53294;DHT22;39181;53.440;5.644;2022-11-04T07:26:01;9.90;99.90
53294;DHT22;39181;53.440;5.644;2022-11-04T07:28:27;10.00;99.90
53294;DHT22;39181;53.440;5.644;2022-11-04T07:30:57;10.00;99.90
53294;DHT22;39181;53.440;5.644;2022-11-04T07:33:23;10.10;99.90
53294;DHT22;39181;53.440;5.644;2022-11-04T07:35:53;10.10;99.90
53294;DHT22;39181;53.440;5.644;2022-11-04T07:38:20;10.20;99.90
53294;DHT22;39181;53.440;5.644;2022-11-04T07:40:46;10.20;99.90
53294;DHT22;39181;53.440;5.644;2022-11-04T07:43:13;10.20;99.90
53294;DHT22;39181;53.440;5.644;2022-11-04T07:45:39;10.20;99.90
53294;DHT22;39181;53.440;5.644;2022-11-04T07:48:04;10.30;99.90
53294;DHT22;39181;53.440;5.644;2022-11-04T07:50:31;10.40;99.90
53294;DHT22;39181;53.440;5.644;2022-11-04T07:52:58;10.50;99.90
53294;DHT22;39181;53.440;5.644;2022-11-04T07:55:24;10.60;99.90
53294;DHT22;39181;53.440;5.644;2022-11-04T07:57:49;10.60;99.90
53294;DHT22;39181;53.440;5.644;2022-11-04T08:00:15;10.60;99.90
53294;DHT22;39181;53.440;5.644;2022-11-04T08:02:42;10.60;99.90
53294;DHT22;39181;53.440;5.644;2022-11-04T08:05:11;10.60;99.90
53294;DHT22;39181;53.440;5.644;2022-11-04T08:07:37;10.60;99.90
53294;DHT22;39181;53.440;5.644;2022-11-04T08:10:03;10.70;99.90
53294;DHT22;39181;53.440;5.644;2022-11-04T08:12:28;10.80;99.90
53294;DHT22;39181;53.440;5.644;2022-11-04T08:14:55;10.90;99.90
53294;DHT22;39181;53.440;5.644;2022-11-04T08:17:21;11.00;99.90
53294;DHT22;39181;53.440;5.644;2022-11-04T08:19:46;11.10;99.90
53294;DHT22;39181;53.440;5.644;2022-11-04T08:22:13;11.10;99.90
53294;DHT22;39181;53.440;5.644;2022-11-04T08:24:38;11.00;99.90
53294;DHT22;39181;53.440;5.644;2022-11-04T08:27:04;11.00;99.90
53294;DHT22;39181;53.440;5.644;2022-11-04T08:29:35;11.00;99.90
53294;DHT22;39181;53.440;5.644;2022-11-04T08:32:01;11.00;99.90
53294;DHT22;39181;53.440;5.644;2022-11-04T08:34:27;11.00;99.90
53294;DHT22;39181;53.440;5.644;2022-11-04T08:36:52;11.00;99.90
53294;DHT22;39181;53.440;5.644;2022-11-04T08:39:20;11.00;99.90
53294;DHT22;39181;53.440;5.644;2022-11-04T08:41:45;11.10;99.90
53294;DHT22;39181;53.440;5.644;2022-11-04T08:44:12;11.10;99.90
53294;DHT22;39181;53.440;5.644;2022-11-04T08:46:39;11.20;99.90
53294;DHT22;39181;53.440;5.644;2022-11-04T08:49:07;11.20;99.90
53294;DHT22;39181;53.440;5.644;2022-11-04T08:51:34;11.40;99.90
53294;DHT22;39181;53.440;5.644;2022-11-04T08:54:03;11.40;99.90
53294;DHT22;39181;53.440;5.644;2022-11-04T08:56:31;11.50;99.90
53294;DHT22;39181;53.440;5.644;2022-11-04T08:58:58;11.50;99.90
53294;DHT22;39181;53.440;5.644;2022-11-04T09:01:25;11.50;99.90
53294;DHT22;39181;53.440;5.644;2022-11-04T09:03:51;11.50;99.90
53294;DHT22;39181;53.440;5.644;2022-11-04T09:06:25;11.50;99.90
53294;DHT22;39181;53.440;5.644;2022-11-04T09:08:52;11.40;99.90
53294;DHT22;39181;53.440;5.644;2022-11-04T09:11:21;11.40;99.90
53294;DHT22;39181;53.440;5.644;2022-11-04T09:13:47;11.40;99.90
53294;DHT22;39181;53.440;5.644;2022-11-04T09:16:13;11.40;99.90
53294;DHT22;39181;53.440;5.644;2022-11-04T09:18:40;11.30;99.90
53294;DHT22;39181;53.440;5.644;2022-11-04T09:21:06;11.30;99.90
53294;DHT22;39181;53.440;5.644;2022-11-04T09:23:32;11.30;99.90
53294;DHT22;39181;53.440;5.644;2022-11-04T09:26:13;11.40;99.90
53294;DHT22;39181;53.440;5.644;2022-11-04T09:28:39;11.50;99.90
53294;DHT22;39181;53.440;5.644;2022-11-04T09:31:14;11.50;99.90
53294;DHT22;39181;53.440;5.644;2022-11-04T09:33:40;11.50;99.90
53294;DHT22;39181;53.440;5.644;2022-11-04T09:36:07;11.70;99.90
53294;DHT22;39181;53.440;5.644;2022-11-04T09:38:33;11.90;99.90
53294;DHT22;39181;53.440;5.644;2022-11-04T09:40:59;12.20;99.90
53294;DHT22;39181;53.440;5.644;2022-11-04T09:45:57;12.70;99.90
53294;DHT22;39181;53.440;5.644;2022-11-04T09:48:28;12.90;99.90
53294;DHT22;39181;53.440;5.644;2022-11-04T09:51:02;13.10;99.90
53294;DHT22;39181;53.440;5.644;2022-11-04T09:53:31;13.10;99.90
53294;DHT22;39181;53.440;5.644;2022-11-04T09:56:07;13.00;99.90
53294;DHT22;39181;53.440;5.644;2022-11-04T09:58:37;12.80;99.90
53294;DHT22;39181;53.440;5.644;2022-11-04T10:01:14;12.60;99.90
53294;DHT22;39181;53.440;5.644;2022-11-04T10:06:40;12.50;99.90
53294;DHT22;39181;53.440;5.644;2022-11-04T10:12:22;12.30;99.90
53294;DHT22;39181;53.440;5.644;2022-11-04T10:15:06;12.20;99.90
53294;DHT22;39181;53.440;5.644;2022-11-04T10:23:25;11.80;99.90
53294;DHT22;39181;53.440;5.644;2022-11-04T10:28:42;11.80;99.90
53294;DHT22;39181;53.440;5.644;2022-11-04T10:31:14;11.80;99.90
53294;DHT22;39181;53.440;5.644;2022-11-04T10:33:52;11.90;99.90
53294;DHT22;39181;53.440;5.644;2022-11-04T10:36:19;12.00;99.90
53294;DHT22;39181;53.440;5.644;2022-11-04T10:38:53;12.00;99.90
53294;DHT22;39181;53.440;5.644;2022-11-04T10:43:49;12.10;99.90
53294;DHT22;39181;53.440;5.644;2022-11-04T10:51:54;12.30;99.90
53294;DHT22;39181;53.440;5.644;2022-11-04T10:54:21;12.30;99.90
53294;DHT22;39181;53.440;5.644;2022-11-04T10:56:50;12.50;99.90
53294;DHT22;39181;53.440;5.644;2022-11-04T10:59:26;12.40;99.90
53294;DHT22;39181;53.440;5.644;2022-11-04T11:02:02;12.50;99.90
53294;DHT22;39181;53.440;5.644;2022-11-04T11:04:34;12.50;99.90
53294;DHT22;39181;53.440;5.644;2022-11-04T11:07:09;12.50;99.90
53294;DHT22;39181;53.440;5.644;2022-11-04T11:09:48;12.60;99.90
53294;DHT22;39181;53.440;5.644;2022-11-04T11:12:24;12.80;99.90
53294;DHT22;39181;53.440;5.644;2022-11-04T11:15:34;13.00;99.90
53294;DHT22;39181;53.440;5.644;2022-11-04T11:18:15;13.30;99.90
53294;DHT22;39181;53.440;5.644;2022-11-04T11:20:50;13.30;99.90
53294;DHT22;39181;53.440;5.644;2022-11-04T11:26:10;13.30;99.90
53294;DHT22;39181;53.440;5.644;2022-11-04T11:28:38;13.20;99.90
53294;DHT22;39181;53.440;5.644;2022-11-04T11:31:10;13.10;99.90
53294;DHT22;39181;53.440;5.644;2022-11-04T11:33:55;13.00;99.90
53294;DHT22;39181;53.440;5.644;2022-11-04T11:36:32;13.10;99.90
53294;DHT22;39181;53.440;5.644;2022-11-04T11:41:57;13.20;99.90
53294;DHT22;39181;53.440;5.644;2022-11-04T11:46:54;13.30;99.90
53294;DHT22;39181;53.440;5.644;2022-11-04T11:49:26;13.40;99.90
53294;DHT22;39181;53.440;5.644;2022-11-04T11:51:53;13.40;99.90
53294;DHT22;39181;53.440;5.644;2022-11-04T11:54:32;13.50;99.90
53294;DHT22;39181;53.440;5.644;2022-11-04T11:57:28;13.50;99.90
53294;DHT22;39181;53.440;5.644;2022-11-04T12:00:04;13.50;99.90
53294;DHT22;39181;53.440;5.644;2022-11-04T12:02:57;13.50;99.90
53294;DHT22;39181;53.440;5.644;2022-11-04T12:05:35;13.60;99.90
53294;DHT22;39181;53.440;5.644;2022-11-04T12:08:15;13.70;99.90
53294;DHT22;39181;53.440;5.644;2022-11-04T12:11:21;13.70;99.90
53294;DHT22;39181;53.440;5.644;2022-11-04T12:13:54;13.80;99.90
53294;DHT22;39181;53.440;5.644;2022-11-04T12:22:13;14.00;99.90
53294;DHT22;39181;53.440;5.644;2022-11-04T12:27:42;14.10;99.90
53294;DHT22;39181;53.440;5.644;2022-11-04T12:30:20;13.80;99.90
53294;DHT22;39181;53.440;5.644;2022-11-04T12:36:11;13.70;99.90
53294;DHT22;39181;53.440;5.644;2022-11-04T12:41:47;13.70;99.90
53294;DHT22;39181;53.440;5.644;2022-11-04T12:44:31;13.60;99.90
53294;DHT22;39181;53.440;5.644;2022-11-04T12:52:58;13.50;99.90
53294;DHT22;39181;53.440;5.644;2022-11-04T12:58:16;13.60;99.90
53294;DHT22;39181;53.440;5.644;2022-11-04T13:00:48;13.60;99.90
53294;DHT22;39181;53.440;5.644;2022-11-04T13:06:11;13.50;99.90
53294;DHT22;39181;53.440;5.644;2022-11-04T13:11:29;13.60;99.90
53294;DHT22;39181;53.440;5.644;2022-11-04T13:16:42;13.50;99.90
53294;DHT22;39181;53.440;5.644;2022-11-04T13:19:50;13.40;99.90
53294;DHT22;39181;53.440;5.644;2022-11-04T13:22:29;13.20;99.90
53294;DHT22;39181;53.440;5.644;2022-11-04T13:25:16;13.20;99.90
53294;DHT22;39181;53.440;5.644;2022-11-04T13:27:45;13.20;99.90
53294;DHT22;39181;53.440;5.644;2022-11-04T13:30:35;13.20;99.90
53294;DHT22;39181;53.440;5.644;2022-11-04T13:38:36;13.00;99.90
53294;DHT22;39181;53.440;5.644;2022-11-04T13:41:27;13.00;99.90
53294;DHT22;39181;53.440;5.644;2022-11-04T13:44:00;13.00;99.90
53294;DHT22;39181;53.440;5.644;2022-11-04T13:46:32;12.90;99.90
53294;DHT22;39181;53.440;5.644;2022-11-04T13:51:46;13.00;99.90
53294;DHT22;39181;53.440;5.644;2022-11-04T13:57:13;13.00;99.90
53294;DHT22;39181;53.440;5.644;2022-11-04T13:59:41;12.90;99.90
53294;DHT22;39181;53.440;5.644;2022-11-04T14:04:38;12.80;99.90
53294;DHT22;39181;53.440;5.644;2022-11-04T14:07:07;12.80;99.90
53294;DHT22;39181;53.440;5.644;2022-11-04T14:09:38;12.80;99.90
53294;DHT22;39181;53.440;5.644;2022-11-04T14:14:40;12.70;99.90
53294;DHT22;39181;53.440;5.644;2022-11-04T14:25:36;12.90;99.90
53294;DHT22;39181;53.440;5.644;2022-11-04T14:30:52;12.70;99.90
53294;DHT22;39181;53.440;5.644;2022-11-04T14:55:18;11.90;99.90
53294;DHT22;39181;53.440;5.644;2022-11-04T14:57:49;11.90;99.90
53294;DHT22;39181;53.440;5.644;2022-11-04T15:05:35;11.70;99.90
53294;DHT22;39181;53.440;5.644;2022-11-04T15:08:24;11.60;99.90
53294;DHT22;39181;53.440;5.644;2022-11-04T15:10:52;11.60;99.90
53294;DHT22;39181;53.440;5.644;2022-11-04T15:13:21;11.60;99.90
53294;DHT22;39181;53.440;5.644;2022-11-04T15:15:47;11.60;99.90
53294;DHT22;39181;53.440;5.644;2022-11-04T15:18:17;11.60;99.90
53294;DHT22;39181;53.440;5.644;2022-11-04T15:20:53;11.50;99.90
53294;DHT22;39181;53.440;5.644;2022-11-04T15:23:27;11.60;99.90
53294;DHT22;39181;53.440;5.644;2022-11-04T15:25:53;11.50;99.90
53294;DHT22;39181;53.440;5.644;2022-11-04T15:28:23;11.60;99.90
53294;DHT22;39181;53.440;5.644;2022-11-04T15:33:43;11.60;99.90
53294;DHT22;39181;53.440;5.644;2022-11-04T15:36:22;11.60;99.90
53294;DHT22;39181;53.440;5.644;2022-11-04T15:38:58;11.60;99.90
53294;DHT22;39181;53.440;5.644;2022-11-04T15:41:28;11.50;99.90
53294;DHT22;39181;53.440;5.644;2022-11-04T15:44:16;11.40;99.90
53294;DHT22;39181;53.440;5.644;2022-11-04T15:46:50;11.40;99.90
53294;DHT22;39181;53.440;5.644;2022-11-04T15:49:25;11.40;99.90
53294;DHT22;39181;53.440;5.644;2022-11-04T15:52:04;11.50;99.90
53294;DHT22;39181;53.440;5.644;2022-11-04T15:54:36;11.50;99.90
53294;DHT22;39181;53.440;5.644;2022-11-04T15:57:15;11.40;99.90
53294;DHT22;39181;53.440;5.644;2022-11-04T16:02:38;11.50;99.90
53294;DHT22;39181;53.440;5.644;2022-11-04T16:07:46;11.30;99.90
53294;DHT22;39181;53.440;5.644;2022-11-04T16:10:44;11.30;99.90
53294;DHT22;39181;53.440;5.644;2022-11-04T16:15:47;11.30;99.90
53294;DHT22;39181;53.440;5.644;2022-11-04T16:18:27;11.30;99.90
53294;DHT22;39181;53.440;5.644;2022-11-04T16:20:55;11.10;99.90
53294;DHT22;39181;53.440;5.644;2022-11-04T16:23:23;11.10;99.90
53294;DHT22;39181;53.440;5.644;2022-11-04T16:25:57;11.20;99.90
53294;DHT22;39181;53.440;5.644;2022-11-04T16:28:26;11.10;99.90
53294;DHT22;39181;53.440;5.644;2022-11-04T16:31:01;11.20;99.90
53294;DHT22;39181;53.440;5.644;2022-11-04T16:33:27;11.30;99.90
53294;DHT22;39181;53.440;5.644;2022-11-04T16:35:52;11.30;99.90
53294;DHT22;39181;53.440;5.644;2022-11-04T16:38:18;11.30;99.90
53294;DHT22;39181;53.440;5.644;2022-11-04T16:40:47;11.30;99.90
53294;DHT22;39181;53.440;5.644;2022-11-04T16:43:16;11.30;99.90
53294;DHT22;39181;53.440;5.644;2022-11-04T16:45:45;11.30;99.90
53294;DHT22;39181;53.440;5.644;2022-11-04T16:48:19;11.20;99.90
53294;DHT22;39181;53.440;5.644;2022-11-04T16:50:45;11.10;99.90
53294;DHT22;39181;53.440;5.644;2022-11-04T16:53:12;11.10;99.90
53294;DHT22;39181;53.440;5.644;2022-11-04T16:55:42;11.10;99.90
53294;DHT22;39181;53.440;5.644;2022-11-04T16:58:16;11.10;99.90
53294;DHT22;39181;53.440;5.644;2022-11-04T17:00:42;11.10;99.90
53294;DHT22;39181;53.440;5.644;2022-11-04T17:03:18;11.00;99.90
53294;DHT22;39181;53.440;5.644;2022-11-04T17:05:52;10.90;99.90
53294;DHT22;39181;53.440;5.644;2022-11-04T17:08:19;11.00;99.90
53294;DHT22;39181;53.440;5.644;2022-11-04T17:10:45;11.00;99.90
53294;DHT22;39181;53.440;5.644;2022-11-04T17:13:11;10.90;99.90
53294;DHT22;39181;53.440;5.644;2022-11-04T17:15:37;10.90;99.90
53294;DHT22;39181;53.440;5.644;2022-11-04T17:18:03;10.90;99.90
53294;DHT22;39181;53.440;5.644;2022-11-04T17:20:29;11.00;99.90
53294;DHT22;39181;53.440;5.644;2022-11-04T17:22:56;11.00;99.90
53294;DHT22;39181;53.440;5.644;2022-11-04T17:25:25;11.00;99.90
53294;DHT22;39181;53.440;5.644;2022-11-04T17:27:51;11.00;99.90
53294;DHT22;39181;53.440;5.644;2022-11-04T17:30:19;11.10;99.90
53294;DHT22;39181;53.440;5.644;2022-11-04T17:32:46;11.20;99.90
53294;DHT22;39181;53.440;5.644;2022-11-04T17:35:12;11.30;99.90
53294;DHT22;39181;53.440;5.644;2022-11-04T17:37:38;11.30;99.90
53294;DHT22;39181;53.440;5.644;2022-11-04T17:40:05;11.30;99.90
53294;DHT22;39181;53.440;5.644;2022-11-04T17:42:32;11.30;99.90
53294;DHT22;39181;53.440;5.644;2022-11-04T17:45:16;11.30;99.90
53294;DHT22;39181;53.440;5.644;2022-11-04T17:47:41;11.30;99.90
53294;DHT22;39181;53.440;5.644;2022-11-04T17:50:07;11.20;99.90
53294;DHT22;39181;53.440;5.644;2022-11-04T17:52:34;11.10;99.90
53294;DHT22;39181;53.440;5.644;2022-11-04T17:55:00;11.00;99.90
53294;DHT22;39181;53.440;5.644;2022-11-04T17:57:25;11.00;99.90
53294;DHT22;39181;53.440;5.644;2022-11-04T17:59:51;11.00;99.90
53294;DHT22;39181;53.440;5.644;2022-11-04T18:02:16;11.00;99.90
53294;DHT22;39181;53.440;5.644;2022-11-04T18:04:44;11.00;99.90
53294;DHT22;39181;53.440;5.644;2022-11-04T18:07:09;10.90;99.90
53294;DHT22;39181;53.440;5.644;2022-11-04T18:09:35;10.80;99.90
53294;DHT22;39181;53.440;5.644;2022-11-04T18:12:01;10.70;99.90
53294;DHT22;39181;53.440;5.644;2022-11-04T18:14:45;10.70;99.90
53294;DHT22;39181;53.440;5.644;2022-11-04T18:17:11;10.80;99.90
53294;DHT22;39181;53.440;5.644;2022-11-04T18:19:36;10.60;99.90
53294;DHT22;39181;53.440;5.644;2022-11-04T18:22:02;10.60;99.90
53294;DHT22;39181;53.440;5.644;2022-11-04T18:24:27;10.50;99.90
53294;DHT22;39181;53.440;5.644;2022-11-04T18:26:53;10.40;99.90
53294;DHT22;39181;53.440;5.644;2022-11-04T18:29:21;10.40;99.90
53294;DHT22;39181;53.440;5.644;2022-11-04T18:31:47;10.40;99.90
53294;DHT22;39181;53.440;5.644;2022-11-04T18:34:14;10.40;99.90
53294;DHT22;39181;53.440;5.644;2022-11-04T18:36:42;10.40;99.90
53294;DHT22;39181;53.440;5.644;2022-11-04T18:39:11;10.40;99.90